sensor_id;sensor_type;location;lat;lon;timestamp;P1;durP1;ratioP1;P2;durP2;ratioP2
4630;SDS011;2328;48.170;11.602;2023-03-15T00:01:36;0.60;;;0.47;;
4630;SDS011;2328;48.170;11.602;2023-03-15T00:04:05;1.33;;;0.60;;
4630;SDS011;2328;48.170;11.602;2023-03-15T00:06:34;2.00;;;0.40;;
4630;SDS011;2328;48.170;11.602;2023-03-15T00:09:03;0.50;;;0.40;;
4630;SDS011;2328;48.170;11.602;2023-03-15T00:11:32;0.90;;;0.60;;
4630;SDS011;2328;48.170;11.602;2023-03-15T00:14:00;2.73;;;0.60;;
4630;SDS011;2328;48.170;11.602;2023-03-15T00:16:32;0.50;;;0.30;;
4630;SDS011;2328;48.170;11.602;2023-03-15T00:19:01;0.50;;;0.40;;
4630;SDS011;2328;48.170;11.602;2023-03-15T00:21:29;0.70;;;0.40;;
4630;SDS011;2328;48.170;11.602;2023-03-15T00:23:57;0.50;;;0.40;;
4630;SDS011;2328;48.170;11.602;2023-03-15T00:26:26;1.33;;;0.43;;
4630;SDS011;2328;48.170;11.602;2023-03-15T00:28:56;1.60;;;0.60;;
4630;SDS011;2328;48.170;11.602;2023-03-15T00:31:25;1.03;;;0.50;;
4630;SDS011;2328;48.170;11.602;2023-03-15T00:33:56;0.60;;;0.40;;
4630;SDS011;2328;48.170;11.602;2023-03-15T00:36:25;0.70;;;0.60;;
4630;SDS011;2328;48.170;11.602;2023-03-15T00:38:54;0.70;;;0.40;;
4630;SDS011;2328;48.170;11.602;2023-03-15T00:41:23;2.73;;;0.70;;
4630;SDS011;2328;48.170;11.602;2023-03-15T00:43:52;2.00;;;0.93;;
4630;SDS011;2328;48.170;11.602;2023-03-15T00:46:25;0.50;;;0.43;;
4630;SDS011;2328;48.170;11.602;2023-03-15T00:48:55;0.60;;;0.40;;
4630;SDS011;2328;48.170;11.602;2023-03-15T00:51:24;7.00;;;0.53;;
4630;SDS011;2328;48.170;11.602;2023-03-15T00:53:53;2.53;;;0.50;;
4630;SDS011;2328;48.170;11.602;2023-03-15T00:56:22;0.80;;;0.57;;
4630;SDS011;2328;48.170;11.602;2023-03-15T00:58:52;0.60;;;0.50;;
4630;SDS011;2328;48.170;11.602;2023-03-15T01:01:22;0.63;;;0.43;;
4630;SDS011;2328;48.170;11.602;2023-03-15T01:03:51;0.50;;;0.40;;
4630;SDS011;2328;48.170;11.602;2023-03-15T01:06:21;1.07;;;0.50;;
4630;SDS011;2328;48.170;11.602;2023-03-15T01:08:50;0.70;;;0.50;;
4630;SDS011;2328;48.170;11.602;2023-03-15T01:11:21;0.60;;;0.40;;
4630;SDS011;2328;48.170;11.602;2023-03-15T01:13:51;1.90;;;0.50;;
4630;SDS011;2328;48.170;11.602;2023-03-15T01:16:20;0.60;;;0.53;;
4630;SDS011;2328;48.170;11.602;2023-03-15T01:18:49;0.83;;;0.40;;
4630;SDS011;2328;48.170;11.602;2023-03-15T01:21:18;0.50;;;0.30;;
4630;SDS011;2328;48.170;11.602;2023-03-15T01:23:48;0.40;;;0.30;;
4630;SDS011;2328;48.170;11.602;2023-03-15T01:26:17;0.50;;;0.30;;
4630;SDS011;2328;48.170;11.602;2023-03-15T01:28:46;0.50;;;0.30;;
4630;SDS011;2328;48.170;11.602;2023-03-15T01:31:16;0.70;;;0.47;;
4630;SDS011;2328;48.170;11.602;2023-03-15T01:33:45;0.50;;;0.50;;
4630;SDS011;2328;48.170;11.602;2023-03-15T01:36:14;0.60;;;0.30;;
4630;SDS011;2328;48.170;11.602;2023-03-15T01:38:43;0.40;;;0.30;;
4630;SDS011;2328;48.170;11.602;2023-03-15T01:41:14;0.67;;;0.30;;
4630;SDS011;2328;48.170;11.602;2023-03-15T01:43:43;0.40;;;0.30;;
4630;SDS011;2328;48.170;11.602;2023-03-15T01:46:14;0.60;;;0.50;;
4630;SDS011;2328;48.170;11.602;2023-03-15T01:48:46;0.40;;;0.30;;
4630;SDS011;2328;48.170;11.602;2023-03-15T01:51:17;2.70;;;0.40;;
4630;SDS011;2328;48.170;11.602;2023-03-15T01:53:47;0.50;;;0.40;;
4630;SDS011;2328;48.170;11.602;2023-03-15T01:56:19;0.50;;;0.40;;
4630;SDS011;2328;48.170;11.602;2023-03-15T01:58:49;1.37;;;0.40;;
4630;SDS011;2328;48.170;11.602;2023-03-15T02:01:19;0.40;;;0.30;;
4630;SDS011;2328;48.170;11.602;2023-03-15T02:03:48;0.50;;;0.30;;
4630;SDS011;2328;48.170;11.602;2023-03-15T02:06:20;0.60;;;0.30;;
4630;SDS011;2328;48.170;11.602;2023-03-15T02:08:49;0.60;;;0.40;;
4630;SDS011;2328;48.170;11.602;2023-03-15T02:11:21;0.90;;;0.50;;
4630;SDS011;2328;48.170;11.602;2023-03-15T02:13:51;0.60;;;0.47;;
4630;SDS011;2328;48.170;11.602;2023-03-15T02:16:20;0.60;;;0.40;;
4630;SDS011;2328;48.170;11.602;2023-03-15T02:18:49;0.50;;;0.40;;
4630;SDS011;2328;48.170;11.602;2023-03-15T02:21:22;0.70;;;0.47;;
4630;SDS011;2328;48.170;11.602;2023-03-15T02:23:53;0.50;;;0.50;;
4630;SDS011;2328;48.170;11.602;2023-03-15T02:26:27;0.87;;;0.57;;
4630;SDS011;2328;48.170;11.602;2023-03-15T02:28:59;0.60;;;0.40;;
4630;SDS011;2328;48.170;11.602;2023-03-15T02:31:37;0.70;;;0.40;;
4630;SDS011;2328;48.170;11.602;2023-03-15T02:34:06;0.60;;;0.40;;
4630;SDS011;2328;48.170;11.602;2023-03-15T02:36:35;0.60;;;0.53;;
4630;SDS011;2328;48.170;11.602;2023-03-15T02:39:13;0.53;;;0.50;;
4630;SDS011;2328;48.170;11.602;2023-03-15T02:41:44;0.50;;;0.40;;
4630;SDS011;2328;48.170;11.602;2023-03-15T02:44:16;0.53;;;0.40;;
4630;SDS011;2328;48.170;11.602;2023-03-15T02:46:46;0.60;;;0.50;;
4630;SDS011;2328;48.170;11.602;2023-03-15T02:49:17;1.10;;;0.80;;
4630;SDS011;2328;48.170;11.602;2023-03-15T02:51:48;1.00;;;0.50;;
4630;SDS011;2328;48.170;11.602;2023-03-15T02:54:17;0.63;;;0.63;;
4630;SDS011;2328;48.170;11.602;2023-03-15T02:56:45;1.83;;;0.60;;
4630;SDS011;2328;48.170;11.602;2023-03-15T02:59:15;0.60;;;0.60;;
4630;SDS011;2328;48.170;11.602;2023-03-15T03:01:44;0.60;;;0.50;;
4630;SDS011;2328;48.170;11.602;2023-03-15T03:04:12;1.00;;;0.60;;
4630;SDS011;2328;48.170;11.602;2023-03-15T03:06:41;0.60;;;0.53;;
4630;SDS011;2328;48.170;11.602;2023-03-15T03:09:10;1.10;;;0.73;;
4630;SDS011;2328;48.170;11.602;2023-03-15T03:11:39;0.80;;;0.50;;
4630;SDS011;2328;48.170;11.602;2023-03-15T03:14:08;2.83;;;0.80;;
4630;SDS011;2328;48.170;11.602;2023-03-15T03:16:41;2.33;;;0.70;;
4630;SDS011;2328;48.170;11.602;2023-03-15T03:19:10;4.83;;;0.60;;
4630;SDS011;2328;48.170;11.602;2023-03-15T03:21:38;0.60;;;0.50;;
4630;SDS011;2328;48.170;11.602;2023-03-15T03:24:08;2.93;;;1.00;;
4630;SDS011;2328;48.170;11.602;2023-03-15T03:26:37;0.73;;;0.50;;
4630;SDS011;2328;48.170;11.602;2023-03-15T03:29:05;4.20;;;0.60;;
4630;SDS011;2328;48.170;11.602;2023-03-15T03:31:34;0.60;;;0.60;;
4630;SDS011;2328;48.170;11.602;2023-03-15T03:34:04;8.77;;;0.60;;
4630;SDS011;2328;48.170;11.602;2023-03-15T03:36:34;0.80;;;0.50;;
4630;SDS011;2328;48.170;11.602;2023-03-15T03:39:03;2.87;;;0.87;;
4630;SDS011;2328;48.170;11.602;2023-03-15T03:41:32;1.00;;;0.60;;
4630;SDS011;2328;48.170;11.602;2023-03-15T03:44:00;1.63;;;0.80;;
4630;SDS011;2328;48.170;11.602;2023-03-15T03:46:28;0.90;;;0.47;;
4630;SDS011;2328;48.170;11.602;2023-03-15T03:48:57;1.10;;;0.53;;
4630;SDS011;2328;48.170;11.602;2023-03-15T03:51:27;0.60;;;0.40;;
4630;SDS011;2328;48.170;11.602;2023-03-15T03:53:56;0.87;;;0.70;;
4630;SDS011;2328;48.170;11.602;2023-03-15T03:56:27;0.50;;;0.30;;
4630;SDS011;2328;48.170;11.602;2023-03-15T03:58:55;2.83;;;0.90;;
4630;SDS011;2328;48.170;11.602;2023-03-15T04:01:25;0.80;;;0.70;;
4630;SDS011;2328;48.170;11.602;2023-03-15T04:03:53;1.10;;;0.80;;
4630;SDS011;2328;48.170;11.602;2023-03-15T04:06:22;9.43;;;0.93;;
4630;SDS011;2328;48.170;11.602;2023-03-15T04:08:52;1.10;;;0.90;;
4630;SDS011;2328;48.170;11.602;2023-03-15T04:11:21;0.80;;;0.73;;
4630;SDS011;2328;48.170;11.602;2023-03-15T04:13:52;1.23;;;0.90;;
4630;SDS011;2328;48.170;11.602;2023-03-15T04:16:21;7.70;;;0.67;;
4630;SDS011;2328;48.170;11.602;2023-03-15T04:18:51;1.43;;;0.70;;
4630;SDS011;2328;48.170;11.602;2023-03-15T04:21:23;0.87;;;0.60;;
4630;SDS011;2328;48.170;11.602;2023-03-15T04:23:58;0.67;;;0.60;;
4630;SDS011;2328;48.170;11.602;2023-03-15T04:26:29;0.50;;;0.40;;
4630;SDS011;2328;48.170;11.602;2023-03-15T04:28:59;3.53;;;0.87;;
4630;SDS011;2328;48.170;11.602;2023-03-15T04:31:29;0.70;;;0.43;;
4630;SDS011;2328;48.170;11.602;2023-03-15T04:34:03;0.50;;;0.50;;
4630;SDS011;2328;48.170;11.602;2023-03-15T04:36:32;1.10;;;1.00;;
4630;SDS011;2328;48.170;11.602;2023-03-15T04:39:02;0.50;;;0.43;;
4630;SDS011;2328;48.170;11.602;2023-03-15T04:41:33;0.80;;;0.50;;
4630;SDS011;2328;48.170;11.602;2023-03-15T04:44:02;1.00;;;0.80;;
4630;SDS011;2328;48.170;11.602;2023-03-15T04:46:31;1.37;;;0.83;;
4630;SDS011;2328;48.170;11.602;2023-03-15T04:48:59;0.80;;;0.50;;
4630;SDS011;2328;48.170;11.602;2023-03-15T04:51:38;1.73;;;0.90;;
4630;SDS011;2328;48.170;11.602;2023-03-15T04:54:08;1.47;;;0.73;;
4630;SDS011;2328;48.170;11.602;2023-03-15T04:56:36;0.40;;;0.30;;
4630;SDS011;2328;48.170;11.602;2023-03-15T04:59:07;0.60;;;0.57;;
4630;SDS011;2328;48.170;11.602;2023-03-15T05:01:36;1.20;;;0.70;;
4630;SDS011;2328;48.170;11.602;2023-03-15T05:04:05;5.03;;;1.00;;
4630;SDS011;2328;48.170;11.602;2023-03-15T05:06:33;2.10;;;0.63;;
4630;SDS011;2328;48.170;11.602;2023-03-15T05:09:02;1.53;;;0.70;;
4630;SDS011;2328;48.170;11.602;2023-03-15T05:11:32;0.70;;;0.60;;
4630;SDS011;2328;48.170;11.602;2023-03-15T05:14:00;0.70;;;0.70;;
4630;SDS011;2328;48.170;11.602;2023-03-15T05:16:29;1.07;;;0.77;;
4630;SDS011;2328;48.170;11.602;2023-03-15T05:18:57;1.40;;;0.87;;
4630;SDS011;2328;48.170;11.602;2023-03-15T05:21:26;1.13;;;1.03;;
4630;SDS011;2328;48.170;11.602;2023-03-15T05:23:54;0.93;;;0.70;;
4630;SDS011;2328;48.170;11.602;2023-03-15T05:26:23;1.30;;;0.93;;
4630;SDS011;2328;48.170;11.602;2023-03-15T05:28:53;1.50;;;1.17;;
4630;SDS011;2328;48.170;11.602;2023-03-15T05:31:21;2.03;;;0.77;;
4630;SDS011;2328;48.170;11.602;2023-03-15T05:33:50;0.77;;;0.77;;
4630;SDS011;2328;48.170;11.602;2023-03-15T05:36:20;2.77;;;1.27;;
4630;SDS011;2328;48.170;11.602;2023-03-15T05:38:48;0.90;;;0.83;;
4630;SDS011;2328;48.170;11.602;2023-03-15T05:41:17;2.87;;;1.03;;
4630;SDS011;2328;48.170;11.602;2023-03-15T05:43:46;1.30;;;1.10;;
4630;SDS011;2328;48.170;11.602;2023-03-15T05:46:15;1.00;;;0.90;;
4630;SDS011;2328;48.170;11.602;2023-03-15T05:48:45;4.23;;;1.00;;
4630;SDS011;2328;48.170;11.602;2023-03-15T05:51:13;2.63;;;1.20;;
4630;SDS011;2328;48.170;11.602;2023-03-15T05:53:42;3.37;;;0.90;;
4630;SDS011;2328;48.170;11.602;2023-03-15T05:56:11;0.70;;;0.60;;
4630;SDS011;2328;48.170;11.602;2023-03-15T05:58:40;1.07;;;0.70;;
4630;SDS011;2328;48.170;11.602;2023-03-15T06:01:08;1.27;;;0.90;;
4630;SDS011;2328;48.170;11.602;2023-03-15T06:03:40;0.50;;;0.50;;
4630;SDS011;2328;48.170;11.602;2023-03-15T06:06:09;21.00;;;1.37;;
4630;SDS011;2328;48.170;11.602;2023-03-15T06:08:37;1.27;;;0.70;;
4630;SDS011;2328;48.170;11.602;2023-03-15T06:11:06;1.27;;;0.97;;
4630;SDS011;2328;48.170;11.602;2023-03-15T06:13:34;0.80;;;0.50;;
4630;SDS011;2328;48.170;11.602;2023-03-15T06:16:04;3.13;;;0.93;;
4630;SDS011;2328;48.170;11.602;2023-03-15T06:18:32;1.30;;;1.00;;
4630;SDS011;2328;48.170;11.602;2023-03-15T06:21:03;0.83;;;0.77;;
4630;SDS011;2328;48.170;11.602;2023-03-15T06:23:32;1.90;;;1.63;;
4630;SDS011;2328;48.170;11.602;2023-03-15T06:26:00;1.57;;;1.00;;
4630;SDS011;2328;48.170;11.602;2023-03-15T06:28:30;0.90;;;0.70;;
4630;SDS011;2328;48.170;11.602;2023-03-15T06:31:03;1.20;;;0.90;;
4630;SDS011;2328;48.170;11.602;2023-03-15T06:33:32;1.60;;;0.70;;
4630;SDS011;2328;48.170;11.602;2023-03-15T06:36:01;2.60;;;1.03;;
4630;SDS011;2328;48.170;11.602;2023-03-15T06:38:31;1.20;;;0.87;;
4630;SDS011;2328;48.170;11.602;2023-03-15T06:41:00;2.30;;;1.27;;
4630;SDS011;2328;48.170;11.602;2023-03-15T06:43:30;1.90;;;1.00;;
4630;SDS011;2328;48.170;11.602;2023-03-15T06:45:59;1.27;;;0.87;;
4630;SDS011;2328;48.170;11.602;2023-03-15T06:48:28;3.73;;;1.00;;
4630;SDS011;2328;48.170;11.602;2023-03-15T06:50:57;7.07;;;1.50;;
4630;SDS011;2328;48.170;11.602;2023-03-15T06:53:26;1.63;;;1.10;;
4630;SDS011;2328;48.170;11.602;2023-03-15T06:55:59;3.53;;;1.23;;
4630;SDS011;2328;48.170;11.602;2023-03-15T06:58:27;3.60;;;1.53;;
4630;SDS011;2328;48.170;11.602;2023-03-15T07:00:56;1.83;;;1.17;;
4630;SDS011;2328;48.170;11.602;2023-03-15T07:03:25;5.33;;;1.23;;
4630;SDS011;2328;48.170;11.602;2023-03-15T07:05:53;5.70;;;2.13;;
4630;SDS011;2328;48.170;11.602;2023-03-15T07:08:23;3.77;;;1.50;;
4630;SDS011;2328;48.170;11.602;2023-03-15T07:10:51;5.37;;;2.60;;
4630;SDS011;2328;48.170;11.602;2023-03-15T07:13:22;4.93;;;1.87;;
4630;SDS011;2328;48.170;11.602;2023-03-15T07:15:51;2.27;;;1.80;;
4630;SDS011;2328;48.170;11.602;2023-03-15T07:18:19;4.47;;;2.17;;
4630;SDS011;2328;48.170;11.602;2023-03-15T07:20:54;6.57;;;2.40;;
4630;SDS011;2328;48.170;11.602;2023-03-15T07:23:22;9.53;;;2.07;;
4630;SDS011;2328;48.170;11.602;2023-03-15T07:25:57;4.07;;;2.20;;
4630;SDS011;2328;48.170;11.602;2023-03-15T07:28:39;3.03;;;2.00;;
4630;SDS011;2328;48.170;11.602;2023-03-15T07:31:09;3.30;;;2.00;;
4630;SDS011;2328;48.170;11.602;2023-03-15T07:33:45;5.00;;;2.07;;
4630;SDS011;2328;48.170;11.602;2023-03-15T07:36:14;4.67;;;2.30;;
4630;SDS011;2328;48.170;11.602;2023-03-15T07:38:43;4.47;;;1.67;;
4630;SDS011;2328;48.170;11.602;2023-03-15T07:41:14;5.13;;;2.40;;
4630;SDS011;2328;48.170;11.602;2023-03-15T07:43:49;2.60;;;1.83;;
4630;SDS011;2328;48.170;11.602;2023-03-15T07:46:18;3.73;;;2.00;;
4630;SDS011;2328;48.170;11.602;2023-03-15T07:48:47;3.23;;;2.47;;
4630;SDS011;2328;48.170;11.602;2023-03-15T07:51:22;6.00;;;2.20;;
4630;SDS011;2328;48.170;11.602;2023-03-15T07:53:54;3.10;;;1.97;;
4630;SDS011;2328;48.170;11.602;2023-03-15T07:56:23;7.20;;;2.53;;
4630;SDS011;2328;48.170;11.602;2023-03-15T07:58:54;5.80;;;2.90;;
4630;SDS011;2328;48.170;11.602;2023-03-15T08:01:25;6.63;;;3.20;;
4630;SDS011;2328;48.170;11.602;2023-03-15T08:03:56;3.07;;;2.13;;
4630;SDS011;2328;48.170;11.602;2023-03-15T08:06:25;3.53;;;2.20;;
4630;SDS011;2328;48.170;11.602;2023-03-15T08:09:01;3.03;;;2.20;;
4630;SDS011;2328;48.170;11.602;2023-03-15T08:11:32;4.07;;;1.97;;
4630;SDS011;2328;48.170;11.602;2023-03-15T08:14:03;5.47;;;2.37;;
4630;SDS011;2328;48.170;11.602;2023-03-15T08:16:33;2.50;;;2.00;;
4630;SDS011;2328;48.170;11.602;2023-03-15T08:19:02;3.67;;;2.07;;
4630;SDS011;2328;48.170;11.602;2023-03-15T08:21:33;6.73;;;2.47;;
4630;SDS011;2328;48.170;11.602;2023-03-15T08:24:08;9.13;;;2.60;;
4630;SDS011;2328;48.170;11.602;2023-03-15T08:26:38;2.80;;;1.93;;
4630;SDS011;2328;48.170;11.602;2023-03-15T08:32:04;4.73;;;1.80;;
4630;SDS011;2328;48.170;11.602;2023-03-15T08:34:34;4.67;;;2.23;;
4630;SDS011;2328;48.170;11.602;2023-03-15T08:37:10;1.73;;;1.60;;
4630;SDS011;2328;48.170;11.602;2023-03-15T08:39:39;4.20;;;2.60;;
4630;SDS011;2328;48.170;11.602;2023-03-15T08:42:09;4.57;;;2.03;;
4630;SDS011;2328;48.170;11.602;2023-03-15T08:44:38;3.40;;;2.30;;
4630;SDS011;2328;48.170;11.602;2023-03-15T08:47:09;3.87;;;2.07;;
4630;SDS011;2328;48.170;11.602;2023-03-15T08:49:37;4.63;;;2.73;;
4630;SDS011;2328;48.170;11.602;2023-03-15T08:52:06;4.67;;;2.10;;
4630;SDS011;2328;48.170;11.602;2023-03-15T08:54:35;1.67;;;1.57;;
4630;SDS011;2328;48.170;11.602;2023-03-15T08:57:04;3.40;;;2.00;;
4630;SDS011;2328;48.170;11.602;2023-03-15T08:59:32;4.00;;;1.83;;
4630;SDS011;2328;48.170;11.602;2023-03-15T09:02:01;2.80;;;2.00;;
4630;SDS011;2328;48.170;11.602;2023-03-15T09:04:31;5.90;;;1.73;;
4630;SDS011;2328;48.170;11.602;2023-03-15T09:07:02;2.17;;;1.70;;
4630;SDS011;2328;48.170;11.602;2023-03-15T09:09:31;2.40;;;1.97;;
4630;SDS011;2328;48.170;11.602;2023-03-15T09:12:10;8.30;;;2.20;;
4630;SDS011;2328;48.170;11.602;2023-03-15T09:14:38;1.40;;;1.17;;
4630;SDS011;2328;48.170;11.602;2023-03-15T09:17:14;1.93;;;1.30;;
4630;SDS011;2328;48.170;11.602;2023-03-15T09:19:44;3.70;;;1.47;;
4630;SDS011;2328;48.170;11.602;2023-03-15T09:22:12;4.97;;;1.93;;
4630;SDS011;2328;48.170;11.602;2023-03-15T09:24:54;6.60;;;2.00;;
4630;SDS011;2328;48.170;11.602;2023-03-15T09:27:23;3.10;;;2.00;;
4630;SDS011;2328;48.170;11.602;2023-03-15T09:29:59;5.17;;;2.30;;
4630;SDS011;2328;48.170;11.602;2023-03-15T09:32:27;5.03;;;1.77;;
4630;SDS011;2328;48.170;11.602;2023-03-15T09:35:03;3.60;;;1.87;;
4630;SDS011;2328;48.170;11.602;2023-03-15T09:37:33;2.10;;;1.90;;
4630;SDS011;2328;48.170;11.602;2023-03-15T09:40:10;2.50;;;1.73;;
4630;SDS011;2328;48.170;11.602;2023-03-15T09:42:46;5.77;;;1.70;;
4630;SDS011;2328;48.170;11.602;2023-03-15T09:45:17;4.20;;;1.73;;
4630;SDS011;2328;48.170;11.602;2023-03-15T09:47:51;2.90;;;1.37;;
4630;SDS011;2328;48.170;11.602;2023-03-15T09:50:25;6.77;;;2.03;;
4630;SDS011;2328;48.170;11.602;2023-03-15T09:53:05;3.50;;;1.17;;
4630;SDS011;2328;48.170;11.602;2023-03-15T09:55:35;6.23;;;2.17;;
4630;SDS011;2328;48.170;11.602;2023-03-15T09:58:04;2.50;;;1.47;;
4630;SDS011;2328;48.170;11.602;2023-03-15T10:00:39;6.57;;;1.50;;
4630;SDS011;2328;48.170;11.602;2023-03-15T10:03:11;3.80;;;1.37;;
4630;SDS011;2328;48.170;11.602;2023-03-15T10:05:55;1.60;;;1.03;;
4630;SDS011;2328;48.170;11.602;2023-03-15T10:08:25;6.00;;;0.97;;
4630;SDS011;2328;48.170;11.602;2023-03-15T10:10:56;6.30;;;1.33;;
4630;SDS011;2328;48.170;11.602;2023-03-15T10:13:32;3.00;;;1.20;;
4630;SDS011;2328;48.170;11.602;2023-03-15T10:16:07;1.97;;;1.30;;
4630;SDS011;2328;48.170;11.602;2023-03-15T10:18:47;5.83;;;1.27;;
4630;SDS011;2328;48.170;11.602;2023-03-15T10:21:24;9.30;;;1.10;;
4630;SDS011;2328;48.170;11.602;2023-03-15T10:23:56;4.80;;;1.53;;
4630;SDS011;2328;48.170;11.602;2023-03-15T10:26:26;0.70;;;0.70;;
4630;SDS011;2328;48.170;11.602;2023-03-15T10:28:58;2.40;;;1.60;;
4630;SDS011;2328;48.170;11.602;2023-03-15T10:31:30;2.77;;;2.00;;
4630;SDS011;2328;48.170;11.602;2023-03-15T10:34:09;3.63;;;1.17;;
4630;SDS011;2328;48.170;11.602;2023-03-15T10:36:44;2.30;;;0.97;;
4630;SDS011;2328;48.170;11.602;2023-03-15T10:39:20;1.33;;;1.00;;
4630;SDS011;2328;48.170;11.602;2023-03-15T10:41:50;3.00;;;0.90;;
4630;SDS011;2328;48.170;11.602;2023-03-15T10:44:23;1.37;;;1.10;;
4630;SDS011;2328;48.170;11.602;2023-03-15T10:47:00;3.73;;;1.13;;
4630;SDS011;2328;48.170;11.602;2023-03-15T10:49:47;1.37;;;0.90;;
4630;SDS011;2328;48.170;11.602;2023-03-15T10:52:27;2.00;;;1.17;;
4630;SDS011;2328;48.170;11.602;2023-03-15T10:54:58;1.33;;;0.70;;
4630;SDS011;2328;48.170;11.602;2023-03-15T10:57:32;5.70;;;1.40;;
4630;SDS011;2328;48.170;11.602;2023-03-15T11:00:04;2.07;;;0.70;;
4630;SDS011;2328;48.170;11.602;2023-03-15T11:02:34;0.90;;;0.77;;
4630;SDS011;2328;48.170;11.602;2023-03-15T11:05:13;1.67;;;0.90;;
4630;SDS011;2328;48.170;11.602;2023-03-15T11:07:53;1.17;;;0.60;;
4630;SDS011;2328;48.170;11.602;2023-03-15T11:10:25;0.50;;;0.40;;
4630;SDS011;2328;48.170;11.602;2023-03-15T11:13:13;3.10;;;1.10;;
4630;SDS011;2328;48.170;11.602;2023-03-15T11:15:53;0.80;;;0.50;;
4630;SDS011;2328;48.170;11.602;2023-03-15T11:18:31;0.80;;;0.63;;
4630;SDS011;2328;48.170;11.602;2023-03-15T11:21:02;2.30;;;0.40;;
4630;SDS011;2328;48.170;11.602;2023-03-15T11:23:35;2.97;;;1.00;;
4630;SDS011;2328;48.170;11.602;2023-03-15T11:26:04;0.90;;;0.40;;
4630;SDS011;2328;48.170;11.602;2023-03-15T11:28:34;0.60;;;0.50;;
4630;SDS011;2328;48.170;11.602;2023-03-15T11:31:03;0.60;;;0.60;;
4630;SDS011;2328;48.170;11.602;2023-03-15T11:33:41;0.63;;;0.60;;
4630;SDS011;2328;48.170;11.602;2023-03-15T11:36:12;2.27;;;0.43;;
4630;SDS011;2328;48.170;11.602;2023-03-15T11:38:45;1.33;;;0.80;;
4630;SDS011;2328;48.170;11.602;2023-03-15T11:41:19;1.13;;;0.60;;
4630;SDS011;2328;48.170;11.602;2023-03-15T11:43:55;2.33;;;0.50;;
4630;SDS011;2328;48.170;11.602;2023-03-15T11:46:26;0.50;;;0.40;;
4630;SDS011;2328;48.170;11.602;2023-03-15T11:48:59;0.80;;;0.40;;
4630;SDS011;2328;48.170;11.602;2023-03-15T11:51:30;3.57;;;0.60;;
4630;SDS011;2328;48.170;11.602;2023-03-15T11:54:05;2.83;;;0.50;;
4630;SDS011;2328;48.170;11.602;2023-03-15T11:56:48;0.67;;;0.50;;
4630;SDS011;2328;48.170;11.602;2023-03-15T11:59:17;3.90;;;0.70;;
4630;SDS011;2328;48.170;11.602;2023-03-15T12:01:47;0.93;;;0.50;;
4630;SDS011;2328;48.170;11.602;2023-03-15T12:04:26;0.90;;;0.70;;
4630;SDS011;2328;48.170;11.602;2023-03-15T12:06:55;0.60;;;0.40;;
4630;SDS011;2328;48.170;11.602;2023-03-15T12:09:40;0.70;;;0.70;;
4630;SDS011;2328;48.170;11.602;2023-03-15T12:15:05;0.93;;;0.40;;
4630;SDS011;2328;48.170;11.602;2023-03-15T12:17:44;0.60;;;0.40;;
4630;SDS011;2328;48.170;11.602;2023-03-15T12:20:17;0.63;;;0.50;;
4630;SDS011;2328;48.170;11.602;2023-03-15T12:22:49;1.93;;;0.47;;
4630;SDS011;2328;48.170;11.602;2023-03-15T12:25:21;2.00;;;0.60;;
4630;SDS011;2328;48.170;11.602;2023-03-15T12:27:54;0.80;;;0.40;;
4630;SDS011;2328;48.170;11.602;2023-03-15T12:30:24;3.83;;;0.60;;
4630;SDS011;2328;48.170;11.602;2023-03-15T12:32:53;0.50;;;0.40;;
4630;SDS011;2328;48.170;11.602;2023-03-15T12:35:23;0.70;;;0.40;;
4630;SDS011;2328;48.170;11.602;2023-03-15T12:37:55;0.50;;;0.33;;
4630;SDS011;2328;48.170;11.602;2023-03-15T12:40:37;3.13;;;0.70;;
4630;SDS011;2328;48.170;11.602;2023-03-15T12:43:06;0.90;;;0.40;;
4630;SDS011;2328;48.170;11.602;2023-03-15T12:45:37;2.50;;;0.43;;
4630;SDS011;2328;48.170;11.602;2023-03-15T12:50:57;0.53;;;0.40;;
4630;SDS011;2328;48.170;11.602;2023-03-15T12:53:28;1.70;;;0.90;;
4630;SDS011;2328;48.170;11.602;2023-03-15T12:56:22;0.73;;;0.53;;
4630;SDS011;2328;48.170;11.602;2023-03-15T12:58:53;0.50;;;0.50;;
4630;SDS011;2328;48.170;11.602;2023-03-15T13:01:32;1.50;;;0.60;;
4630;SDS011;2328;48.170;11.602;2023-03-15T13:04:01;1.13;;;0.50;;
4630;SDS011;2328;48.170;11.602;2023-03-15T13:06:40;0.60;;;0.53;;
4630;SDS011;2328;48.170;11.602;2023-03-15T13:09:14;2.40;;;0.53;;
4630;SDS011;2328;48.170;11.602;2023-03-15T13:15:05;0.63;;;0.50;;
4630;SDS011;2328;48.170;11.602;2023-03-15T13:17:49;0.73;;;0.67;;
4630;SDS011;2328;48.170;11.602;2023-03-15T13:20:50;1.20;;;0.60;;
4630;SDS011;2328;48.170;11.602;2023-03-15T13:23:28;0.83;;;0.37;;
4630;SDS011;2328;48.170;11.602;2023-03-15T13:26:02;0.60;;;0.40;;
4630;SDS011;2328;48.170;11.602;2023-03-15T13:28:37;4.93;;;0.60;;
4630;SDS011;2328;48.170;11.602;2023-03-15T13:31:15;1.67;;;0.83;;
4630;SDS011;2328;48.170;11.602;2023-03-15T13:33:45;1.67;;;0.63;;
4630;SDS011;2328;48.170;11.602;2023-03-15T13:36:23;0.50;;;0.40;;
4630;SDS011;2328;48.170;11.602;2023-03-15T13:38:53;3.50;;;0.40;;
4630;SDS011;2328;48.170;11.602;2023-03-15T13:41:23;0.50;;;0.40;;
4630;SDS011;2328;48.170;11.602;2023-03-15T13:43:53;0.70;;;0.47;;
4630;SDS011;2328;48.170;11.602;2023-03-15T13:46:24;0.82;;;0.43;;
4630;SDS011;2328;48.170;11.602;2023-03-15T13:48:54;0.80;;;0.47;;
4630;SDS011;2328;48.170;11.602;2023-03-15T13:51:30;1.37;;;0.70;;
4630;SDS011;2328;48.170;11.602;2023-03-15T13:53:59;4.93;;;0.90;;
4630;SDS011;2328;48.170;11.602;2023-03-15T13:56:29;2.00;;;0.60;;
4630;SDS011;2328;48.170;11.602;2023-03-15T13:59:14;0.80;;;0.60;;
4630;SDS011;2328;48.170;11.602;2023-03-15T14:01:45;0.83;;;0.50;;
4630;SDS011;2328;48.170;11.602;2023-03-15T14:04:15;0.60;;;0.50;;
4630;SDS011;2328;48.170;11.602;2023-03-15T14:06:44;0.60;;;0.40;;
4630;SDS011;2328;48.170;11.602;2023-03-15T14:09:16;0.80;;;0.50;;
4630;SDS011;2328;48.170;11.602;2023-03-15T14:12:04;0.50;;;0.30;;
4630;SDS011;2328;48.170;11.602;2023-03-15T14:14:35;1.23;;;0.60;;
4630;SDS011;2328;48.170;11.602;2023-03-15T14:17:16;0.50;;;0.47;;
4630;SDS011;2328;48.170;11.602;2023-03-15T14:19:50;2.00;;;0.50;;
4630;SDS011;2328;48.170;11.602;2023-03-15T14:22:20;7.63;;;0.50;;
4630;SDS011;2328;48.170;11.602;2023-03-15T14:24:51;2.03;;;0.50;;
4630;SDS011;2328;48.170;11.602;2023-03-15T14:27:26;3.60;;;0.60;;
4630;SDS011;2328;48.170;11.602;2023-03-15T14:29:56;0.50;;;0.40;;
4630;SDS011;2328;48.170;11.602;2023-03-15T14:32:38;2.50;;;0.40;;
4630;SDS011;2328;48.170;11.602;2023-03-15T14:35:21;0.67;;;0.40;;
4630;SDS011;2328;48.170;11.602;2023-03-15T14:38:02;0.50;;;0.40;;
4630;SDS011;2328;48.170;11.602;2023-03-15T14:40:38;0.50;;;0.30;;
4630;SDS011;2328;48.170;11.602;2023-03-15T14:43:09;1.00;;;0.40;;
4630;SDS011;2328;48.170;11.602;2023-03-15T14:45:41;1.23;;;0.40;;
4630;SDS011;2328;48.170;11.602;2023-03-15T14:48:12;9.83;;;0.77;;
4630;SDS011;2328;48.170;11.602;2023-03-15T14:50:49;0.40;;;0.30;;
4630;SDS011;2328;48.170;11.602;2023-03-15T14:53:20;2.73;;;0.40;;
4630;SDS011;2328;48.170;11.602;2023-03-15T14:55:50;0.70;;;0.43;;
4630;SDS011;2328;48.170;11.602;2023-03-15T14:58:21;1.03;;;0.50;;
4630;SDS011;2328;48.170;11.602;2023-03-15T15:00:58;1.83;;;0.50;;
4630;SDS011;2328;48.170;11.602;2023-03-15T15:03:57;0.70;;;0.60;;
4630;SDS011;2328;48.170;11.602;2023-03-15T15:06:28;1.00;;;0.53;;
4630;SDS011;2328;48.170;11.602;2023-03-15T15:08:57;1.37;;;0.70;;
4630;SDS011;2328;48.170;11.602;2023-03-15T15:11:27;0.63;;;0.40;;
4630;SDS011;2328;48.170;11.602;2023-03-15T15:13:57;6.43;;;0.67;;
4630;SDS011;2328;48.170;11.602;2023-03-15T15:16:28;0.83;;;0.50;;
4630;SDS011;2328;48.170;11.602;2023-03-15T15:18:58;0.70;;;0.43;;
4630;SDS011;2328;48.170;11.602;2023-03-15T15:21:30;0.60;;;0.53;;
4630;SDS011;2328;48.170;11.602;2023-03-15T15:24:00;0.90;;;0.50;;
4630;SDS011;2328;48.170;11.602;2023-03-15T15:26:29;0.50;;;0.40;;
4630;SDS011;2328;48.170;11.602;2023-03-15T15:28:59;0.90;;;0.40;;
4630;SDS011;2328;48.170;11.602;2023-03-15T15:31:29;1.43;;;0.50;;
4630;SDS011;2328;48.170;11.602;2023-03-15T15:34:01;0.53;;;0.30;;
4630;SDS011;2328;48.170;11.602;2023-03-15T15:36:32;0.77;;;0.53;;
4630;SDS011;2328;48.170;11.602;2023-03-15T15:39:02;0.50;;;0.33;;